Time;durP1;ratioP1;P1;durP2;ratioP2;P2;SDS_P1;SDS_P2;PMS_P1;PMS_P2;Temp;Humidity;BMP_temperature;BMP_pressure;BME280_temperature;BME280_humidity;BME280_pressure;Samples;Min_cycle;Max_cycle;Signal;HPM_P1;HPM_P2
2021/04/02 00:00:15;;;;;;;14.43;12.58;;;;;;;6.08;68.01;100362.27;1773844;77;25823;-78
2021/04/02 00:02:42;;;;;;;13.78;11.80;;;;;;;6.12;67.86;100361.54;1774139;77;25722;-78
2021/04/02 00:05:11;;;;;;;9.93;7.47;;;;;;;6.11;67.91;100359.42;1750825;77;25343;-78
2021/04/02 00:07:37;;;;;;;7.20;5.25;;;;;;;6.13;67.89;100364.47;1772139;77;25360;-79
2021/04/02 00:10:08;;;;;;;4.77;4.17;;;;;;;6.16;67.87;100367.59;1775212;78;25980;-77
2021/04/02 00:12:34;;;;;;;5.85;3.92;;;;;;;6.11;67.75;100381.94;1772570;77;25762;-80
2021/04/02 00:15:00;;;;;;;3.50;2.60;;;;;;;6.00;68.03;100375.94;1772642;75;25872;-79
2021/04/02 00:17:26;;;;;;;4.53;2.83;;;;;;;5.95;68.13;100369.03;1752551;78;25413;-80
2021/04/02 00:19:52;;;;;;;4.00;2.13;;;;;;;5.92;68.17;100369.28;1777034;78;26750;-77
2021/04/02 00:22:17;;;;;;;3.00;2.40;;;;;;;5.94;68.23;100371.27;1781057;78;25523;-78
2021/04/02 00:24:43;;;;;;;3.00;2.50;;;;;;;5.92;67.89;100366.69;1778930;77;25381;-77
2021/04/02 00:27:09;;;;;;;4.73;3.07;;;;;;;5.92;67.85;100372.33;1778796;78;25837;-77
2021/04/02 00:29:34;;;;;;;3.63;2.90;;;;;;;5.75;67.72;100371.20;1780602;78;25924;-77
2021/04/02 00:32:00;;;;;;;4.30;3.27;;;;;;;5.67;67.59;100372.35;1778306;78;25761;-80
2021/04/02 00:34:26;;;;;;;4.77;2.90;;;;;;;5.65;67.44;100378.17;1779884;78;25835;-80
2021/04/02 00:36:52;;;;;;;4.13;2.90;;;;;;;5.69;67.58;100382.13;1779810;78;25677;-80
2021/04/02 00:39:17;;;;;;;3.30;2.70;;;;;;;5.77;67.61;100378.39;1779840;78;25856;-80
2021/04/02 00:41:43;;;;;;;3.50;2.87;;;;;;;5.84;67.37;100370.88;1781378;78;25813;-77
2021/04/02 00:44:09;;;;;;;3.40;2.10;;;;;;;5.79;67.05;100373.89;1782381;77;26325;-78
2021/04/02 00:46:36;;;;;;;3.83;2.40;;;;;;;5.76;67.16;100388.43;1781117;77;25375;-78
2021/04/02 00:49:04;;;;;;;2.37;2.15;;;;;;;5.76;67.21;100382.76;1780049;78;25972;-77
2021/04/02 00:51:32;;;;;;;3.70;2.77;;;;;;;5.79;67.31;100383.78;1755501;78;25901;-78
2021/04/02 00:53:58;;;;;;;3.62;2.62;;;;;;;5.87;67.37;100387.50;1783354;78;26301;-78
2021/04/02 00:56:25;;;;;;;4.40;2.43;;;;;;;5.76;67.25;100396.20;1795925;78;27304;-77
2021/04/02 00:58:51;;;;;;;4.90;2.40;;;;;;;5.68;67.37;100400.75;1786333;77;25292;-77
2021/04/02 01:01:17;;;;;;;3.33;2.40;;;;;;;5.52;67.56;100402.54;1788061;78;26454;-78
2021/04/02 01:03:46;;;;;;;3.33;2.30;;;;;;;5.49;67.79;100395.52;1779496;78;25375;-77
2021/04/02 01:06:20;;;;;;;4.10;2.47;;;;;;;5.54;67.90;100394.65;1780430;78;25877;-77
2021/04/02 01:08:47;;;;;;;4.20;2.20;;;;;;;5.48;67.81;100394.70;1781673;78;25750;-77
2021/04/02 01:11:18;;;;;;;2.60;2.30;;;;;;;5.43;67.95;100394.72;1782126;78;25779;-77
2021/04/02 01:13:51;;;;;;;3.05;2.27;;;;;;;5.36;67.85;100393.62;1779585;78;25773;-77
2021/04/02 01:16:30;;;;;;;4.08;2.58;;;;;;;5.36;67.91;100391.84;1780025;78;25836;-77
2021/04/02 01:19:19;;;;;;;2.77;2.30;;;;;;;5.36;67.82;100395.73;1780756;78;25361;-78
2021/04/02 01:21:56;;;;;;;4.53;2.42;;;;;;;5.26;67.89;100403.45;1706859;82;26860;-77
2021/04/02 01:24:30;;;;;;;3.52;2.27;;;;;;;5.21;67.86;100396.56;1707029;82;25852;-77
2021/04/02 01:27:32;;;;;;;4.33;2.40;;;;;;;5.14;67.84;100408.86;1706495;82;25809;-77
2021/04/02 01:30:05;;;;;;;3.90;2.75;;;;;;;5.10;67.93;100410.87;1705309;82;25374;-78
2021/04/02 01:32:40;;;;;;;3.75;2.40;;;;;;;4.97;67.92;100414.97;1707998;82;25642;-78
2021/04/02 01:35:27;;;;;;;3.17;2.22;;;;;;;4.91;67.92;100427.14;1685645;82;25466;-78
2021/04/02 01:38:05;;;;;;;5.45;2.37;;;;;;;4.92;68.19;100420.19;1656340;85;25483;-78
2021/04/02 01:40:35;;;;;;;4.05;2.42;;;;;;;4.87;68.25;100433.03;1657702;84;26091;-78
2021/04/02 01:43:13;;;;;;;3.60;2.25;;;;;;;4.76;68.32;100428.39;1657270;85;25854;-78
2021/04/02 01:45:42;;;;;;;4.45;2.52;;;;;;;4.66;68.25;100427.86;1655265;85;25829;-78
2021/04/02 01:48:10;;;;;;;5.00;2.55;;;;;;;4.63;68.29;100431.16;1656534;85;25877;-78
2021/04/02 01:50:40;;;;;;;3.50;2.17;;;;;;;4.62;68.24;100430.34;1657189;85;25390;-78
2021/04/02 01:53:08;;;;;;;2.85;2.30;;;;;;;4.64;68.19;100443.98;1656707;85;25776;-78
2021/04/02 01:55:37;;;;;;;3.90;2.47;;;;;;;4.66;68.19;100445.14;1674928;82;25829;-78
2021/04/02 01:58:06;;;;;;;3.92;2.33;;;;;;;4.55;68.22;100447.78;1715385;82;25833;-78
2021/04/02 02:00:43;;;;;;;4.20;2.33;;;;;;;4.44;68.72;100441.70;1710064;82;25847;-78
2021/04/02 02:03:11;;;;;;;4.62;2.83;;;;;;;4.37;69.55;100450.91;1690323;82;25845;-78
2021/04/02 02:05:38;;;;;;;4.03;2.40;;;;;;;4.29;69.49;100453.77;1713642;82;26161;-78
2021/04/02 02:08:07;;;;;;;2.60;2.22;;;;;;;4.26;70.13;100461.78;1714339;82;25359;-78
2021/04/02 02:10:35;;;;;;;3.37;2.30;;;;;;;4.21;69.99;100469.41;1712752;82;25751;-78
2021/04/02 02:13:03;;;;;;;6.75;2.72;;;;;;;4.06;70.20;100471.91;1714849;82;25879;-78
2021/04/02 02:15:37;;;;;;;4.42;2.70;;;;;;;4.03;70.19;100473.44;1755421;79;25391;-77
2021/04/02 02:18:08;;;;;;;3.12;2.30;;;;;;;4.03;70.14;100479.09;1764398;79;25874;-77
2021/04/02 02:20:40;;;;;;;3.83;2.70;;;;;;;4.09;70.81;100486.36;1765063;79;25733;-77
2021/04/02 02:23:08;;;;;;;3.75;2.62;;;;;;;4.00;70.56;100490.02;1764368;79;25482;-78
2021/04/02 02:25:35;;;;;;;4.30;2.72;;;;;;;3.98;70.97;100490.63;1764868;79;25391;-77
2021/04/02 02:28:04;;;;;;;5.20;2.50;;;;;;;3.94;71.45;100487.91;1765048;79;25616;-77
2021/04/02 02:30:33;;;;;;;5.47;2.65;;;;;;;3.94;71.98;100487.09;1763971;79;26437;-77
2021/04/02 02:33:07;;;;;;;4.15;2.80;;;;;;;3.89;71.52;100494.38;1762183;79;25348;-77
2021/04/02 02:35:35;;;;;;;3.30;2.92;;;;;;;3.86;71.58;100501.91;1764325;77;25319;-77
2021/04/02 02:38:02;;;;;;;6.30;2.80;;;;;;;3.83;71.67;100507.31;1764730;79;25396;-77
2021/04/02 02:40:33;;;;;;;4.30;2.83;;;;;;;3.76;72.06;100504.83;1764072;79;25913;-77
2021/04/02 02:43:01;;;;;;;3.85;3.15;;;;;;;3.76;71.95;100503.55;1763224;79;25714;-78
2021/04/02 02:45:30;;;;;;;4.10;2.90;;;;;;;3.69;71.93;100496.74;1763163;79;25478;-78
2021/04/02 02:47:57;;;;;;;4.50;3.20;;;;;;;3.68;72.26;100500.72;1744947;79;25317;-78
2021/04/02 02:50:30;;;;;;;4.17;2.90;;;;;;;3.63;72.29;100508.84;1741586;79;25834;-78
2021/04/02 02:52:58;;;;;;;5.83;2.83;;;;;;;3.58;73.75;100506.27;1763619;79;25344;-78
2021/04/02 02:55:26;;;;;;;5.35;3.27;;;;;;;3.56;72.97;100511.53;1763265;79;25709;-78
2021/04/02 02:57:56;;;;;;;3.52;2.77;;;;;;;3.62;73.25;100508.47;1764729;79;25859;-78
2021/04/02 03:00:27;;;;;;;4.25;3.10;;;;;;;3.62;73.84;100512.83;1763518;79;25852;-78
2021/04/02 03:02:58;;;;;;;7.67;3.00;;;;;;;3.55;73.58;100509.42;1764212;79;25922;-78
2021/04/02 03:05:27;;;;;;;5.90;2.98;;;;;;;3.60;73.51;100512.11;1764410;78;25727;-78
2021/04/02 03:07:58;;;;;;;5.22;3.40;;;;;;;3.61;73.95;100517.18;1763224;79;25755;-78
2021/04/02 03:10:26;;;;;;;6.47;3.35;;;;;;;3.62;73.61;100507.66;1763392;79;25773;-78
2021/04/02 03:12:54;;;;;;;5.55;3.20;;;;;;;3.70;73.52;100516.47;1764615;79;25746;-78
2021/04/02 03:15:23;;;;;;;6.37;3.20;;;;;;;3.62;74.03;100516.23;1763151;79;25313;-78
2021/04/02 03:18:03;;;;;;;6.37;3.27;;;;;;;3.58;73.96;100514.83;1730877;79;25478;-78
2021/04/02 03:20:34;;;;;;;4.50;3.15;;;;;;;3.54;73.80;100514.69;1768298;78;25700;-78
2021/04/02 03:23:02;;;;;;;4.33;3.20;;;;;;;3.52;74.50;100507.07;1774477;78;25914;-78
2021/04/02 03:25:30;;;;;;;4.92;3.50;;;;;;;3.45;74.06;100514.10;1777304;78;25830;-78
2021/04/02 03:27:59;;;;;;;3.77;3.25;;;;;;;3.39;74.28;100511.98;1772389;77;25828;-77
2021/04/02 03:30:29;;;;;;;10.45;3.75;;;;;;;3.40;74.20;100510.56;1774772;77;25932;-78
2021/04/02 03:33:14;;;;;;;9.65;4.33;;;;;;;3.43;74.34;100504.34;1771651;78;26102;-78
2021/04/02 03:35:44;;;;;;;5.47;3.00;;;;;;;3.34;74.18;100502.80;1771780;78;25698;-78
2021/04/02 03:38:14;;;;;;;5.15;3.70;;;;;;;3.41;74.22;100501.89;1770614;78;25770;-77
2021/04/02 03:40:44;;;;;;;8.85;4.17;;;;;;;3.36;74.51;100499.30;1772173;78;25727;-78
2021/04/02 03:43:12;;;;;;;5.78;3.58;;;;;;;3.31;74.19;100495.77;1770247;78;25714;-78
2021/04/02 03:45:42;;;;;;;6.62;3.90;;;;;;;3.30;74.23;100496.23;1758356;78;25976;-78
2021/04/02 03:48:12;;;;;;;4.50;3.80;;;;;;;3.25;74.53;100500.11;1750184;79;25424;-78
2021/04/02 03:50:42;;;;;;;6.10;3.55;;;;;;;3.19;75.42;100496.66;1771448;78;25384;-78
2021/04/02 03:53:15;;;;;;;7.58;4.00;;;;;;;3.08;75.03;100497.45;1774266;78;25306;-78
2021/04/02 03:55:46;;;;;;;6.62;4.00;;;;;;;2.99;75.31;100491.22;1772298;79;25859;-80
2021/04/02 03:58:16;;;;;;;8.45;4.97;;;;;;;2.94;75.22;100495.08;1770726;78;25766;-80
2021/04/02 04:00:56;;;;;;;6.10;4.00;;;;;;;2.93;75.21;100485.22;1770598;78;26404;-80
2021/04/02 04:03:24;;;;;;;5.75;4.20;;;;;;;3.00;75.28;100488.16;1774336;78;26297;-80
2021/04/02 04:05:56;;;;;;;6.45;3.80;;;;;;;3.04;75.57;100489.13;1771102;78;25678;-80
2021/04/02 04:08:26;;;;;;;6.35;4.22;;;;;;;2.96;75.40;100482.41;1749680;78;25378;-78
2021/04/02 04:10:55;;;;;;;6.83;4.95;;;;;;;3.00;75.95;100480.41;1773459;78;26818;-78
2021/04/02 04:13:25;;;;;;;6.22;4.65;;;;;;;2.96;75.60;100481.59;1772245;78;25352;-78
2021/04/02 04:15:54;;;;;;;8.25;5.08;;;;;;;2.94;76.22;100486.04;1772650;77;25909;-78
2021/04/02 04:18:22;;;;;;;;;;;;;;;2.90;76.16;100484.16;1751534;79;25977;-77
2021/04/02 04:20:51;;;;;;;5.50;3.92;;;;;;;2.84;76.69;100485.91;1756264;79;25700;-78
2021/04/02 04:23:21;;;;;;;7.12;4.97;;;;;;;2.84;77.25;100491.07;1755029;77;26094;-77
2021/04/02 04:25:52;;;;;;;6.17;4.47;;;;;;;2.82;76.80;100489.06;1774745;79;25725;-80
2021/04/02 04:28:21;;;;;;;9.63;5.03;;;;;;;2.85;78.00;100481.91;1773599;77;25711;-79
2021/04/02 04:30:52;;;;;;;9.15;5.60;;;;;;;2.83;78.21;100490.70;1777225;76;25885;-79
2021/04/02 04:33:18;;;;;;;7.87;5.53;;;;;;;2.74;77.80;100478.47;1776735;77;25859;-77
2021/04/02 04:35:47;;;;;;;8.43;5.58;;;;;;;2.74;77.46;100485.73;1774919;77;25734;-77
2021/04/02 04:38:13;;;;;;;7.67;5.40;;;;;;;2.78;77.60;100487.63;1773208;77;25262;-77
2021/04/02 04:40:40;;;;;;;8.93;5.92;;;;;;;2.80;77.33;100483.18;1773649;78;25813;-77
2021/04/02 04:43:10;;;;;;;7.95;5.45;;;;;;;2.93;77.28;100474.89;1774958;77;26030;-77
2021/04/02 04:45:36;;;;;;;7.03;5.03;;;;;;;3.01;77.21;100480.31;1772830;78;25370;-76
2021/04/02 04:48:02;;;;;;;7.30;5.65;;;;;;;3.01;76.76;100477.73;1772733;77;25803;-77
2021/04/02 04:50:28;;;;;;;7.15;5.10;;;;;;;3.07;76.80;100474.69;1775197;77;25742;-77
2021/04/02 04:53:02;;;;;;;7.90;5.03;;;;;;;3.12;76.88;100470.48;1772311;79;35046;-77
2021/04/02 04:55:31;;;;;;;6.58;5.05;;;;;;;3.08;76.64;100477.65;1773371;78;26627;-77
2021/04/02 04:57:59;;;;;;;6.97;5.03;;;;;;;3.09;76.94;100474.59;1771778;78;25808;-76
2021/04/02 05:00:27;;;;;;;7.83;4.87;;;;;;;3.03;76.77;100472.00;1772517;77;26344;-77
2021/04/02 05:02:55;;;;;;;8.75;5.80;;;;;;;3.09;77.08;100477.17;1773808;77;26323;-77
2021/04/02 05:05:31;;;;;;;7.33;5.28;;;;;;;3.10;76.68;100477.52;1771697;78;25551;-77
2021/04/02 05:08:02;;;;;;;6.40;4.20;;;;;;;3.14;76.63;100478.10;1772238;79;25792;-77
2021/04/02 05:10:29;;;;;;;7.03;5.37;;;;;;;3.20;76.57;100478.95;1773331;78;25674;-78
2021/04/02 05:12:57;;;;;;;6.47;4.75;;;;;;;3.20;76.43;100486.23;1746129;80;25655;-77
2021/04/02 05:15:23;;;;;;;7.35;4.70;;;;;;;3.17;76.71;100498.56;1773749;78;25697;-78
2021/04/02 05:17:51;;;;;;;7.03;4.97;;;;;;;3.08;76.89;100500.04;1757813;79;25368;-78
2021/04/02 05:20:20;;;;;;;6.85;5.15;;;;;;;3.04;76.57;100503.80;1772863;78;25848;-78
2021/04/02 05:22:46;;;;;;;7.30;5.37;;;;;;;3.09;77.07;100510.27;1772983;79;25886;-78
2021/04/02 05:25:13;;;;;;;7.97;5.55;;;;;;;3.08;77.00;100512.50;1781229;77;25589;-77
2021/04/02 05:27:40;;;;;;;5.92;5.30;;;;;;;3.07;76.82;100514.72;1757810;78;44220;-78
2021/04/02 05:32:40;;;;;;;7.17;4.80;;;;;;;3.01;77.24;100522.10;1780585;78;25787;-77
2021/04/02 05:35:08;;;;;;;6.63;5.07;;;;;;;3.01;77.24;100519.05;1749964;79;25817;-77
2021/04/02 05:37:33;;;;;;;9.45;5.42;;;;;;;3.05;77.18;100520.45;1779235;78;25671;-77
2021/04/02 05:39:59;;;;;;;7.17;4.93;;;;;;;3.13;77.22;100513.91;1781117;78;26331;-77
2021/04/02 05:42:27;;;;;;;6.33;4.63;;;;;;;3.13;77.55;100528.12;1782446;78;34952;-77
2021/04/02 05:44:56;;;;;;;6.37;4.92;;;;;;;3.10;77.15;100531.74;1781068;78;25333;-77
2021/04/02 05:47:26;;;;;;;6.20;4.60;;;;;;;3.10;77.12;100529.16;1780782;78;25547;-77
2021/04/02 05:49:56;;;;;;;6.23;4.87;;;;;;;3.11;77.65;100523.08;1779275;78;25685;-77
2021/04/02 05:52:27;;;;;;;;;;;;;;;3.10;77.77;100529.16;1782064;77;25862;-77
2021/04/02 05:54:55;;;;;;;7.10;5.35;;;;;;;3.07;77.42;100530.68;1781324;77;25340;-77
2021/04/02 05:57:21;;;;;;;7.25;5.03;;;;;;;3.06;77.85;100531.63;1780875;77;25862;-77
2021/04/02 05:59:48;;;;;;;8.25;5.70;;;;;;;3.00;78.05;100529.03;1750042;78;25911;-76
2021/04/02 06:02:15;;;;;;;7.87;6.60;;;;;;;2.96;78.74;100525.48;1779997;78;26681;-79
2021/04/02 06:04:41;;;;;;;8.40;5.95;;;;;;;2.99;77.90;100527.36;1758203;78;25673;-77
2021/04/02 06:07:07;;;;;;;9.37;6.83;;;;;;;3.05;77.94;100526.09;1706217;81;32079;-78
2021/04/02 06:09:33;;;;;;;9.08;7.05;;;;;;;3.08;77.72;100530.58;1701771;81;25842;-79
2021/04/02 06:12:01;;;;;;;12.27;8.50;;;;;;;3.12;77.87;100519.55;1689728;81;25693;-79
2021/04/02 06:14:27;;;;;;;11.00;8.30;;;;;;;3.13;77.85;100530.22;1701162;81;25819;-79
2021/04/02 06:16:54;;;;;;;11.93;8.70;;;;;;;3.16;77.83;100528.70;1709305;82;25866;-78
2021/04/02 06:19:22;;;;;;;17.77;10.40;;;;;;;3.16;77.78;100530.47;1688725;82;25338;-77
2021/04/02 06:21:52;;;;;;;11.35;8.60;;;;;;;3.15;77.47;100537.88;1724159;80;26329;-79
2021/04/02 06:24:38;;;;;;;12.90;9.93;;;;;;;3.19;77.81;100531.09;1673475;83;25667;-79
2021/04/02 06:27:08;;;;;;;14.45;9.83;;;;;;;3.21;77.49;100526.61;1710553;81;26545;-79
2021/04/02 06:29:44;;;;;;;13.35;8.25;;;;;;;3.22;77.42;100528.27;1707567;81;25752;-78
2021/04/02 06:32:15;;;;;;;11.75;9.13;;;;;;;3.18;77.64;100527.31;1708725;81;25905;-79
2021/04/02 06:34:47;;;;;;;11.45;8.38;;;;;;;3.15;77.42;100530.12;1707829;81;25757;-79
2021/04/02 06:37:18;;;;;;;14.70;8.93;;;;;;;3.20;77.42;100519.80;1711494;81;25767;-79
2021/04/02 06:39:52;;;;;;;12.10;9.38;;;;;;;3.26;77.46;100536.13;1712754;81;25957;-78
2021/04/02 06:42:32;;;;;;;13.28;9.38;;;;;;;3.31;77.48;100536.62;1717561;81;25700;-78
2021/04/02 06:45:07;;;;;;;12.35;10.15;;;;;;;3.32;77.15;100530.98;1710551;81;25770;-76
2021/04/02 06:47:35;;;;;;;13.88;9.45;;;;;;;3.42;77.32;100530.66;1708414;81;26199;-78
2021/04/02 06:50:20;;;;;;;10.98;7.97;;;;;;;3.59;77.32;100537.14;1712321;81;25778;-75
2021/04/02 06:52:53;;;;;;;11.80;8.40;;;;;;;3.71;77.17;100547.01;1700067;81;27413;-74
2021/04/02 06:55:21;;;;;;;12.43;7.80;;;;;;;3.84;76.87;100538.68;1711062;81;25737;-76
2021/04/02 06:57:53;;;;;;;15.70;8.95;;;;;;;3.89;76.73;100544.80;1709884;81;25797;-74
2021/04/02 07:00:25;;;;;;;11.57;8.20;;;;;;;3.91;76.51;100551.98;1711037;81;25806;-76
2021/04/02 07:02:52;;;;;;;13.18;8.13;;;;;;;3.92;76.08;100549.73;1706663;81;25796;-76
2021/04/02 07:05:25;;;;;;;10.53;7.75;;;;;;;3.92;76.08;100553.61;1706226;82;26268;-75
2021/04/02 07:08:08;;;;;;;10.63;7.92;;;;;;;3.85;75.73;100555.04;1714967;80;25975;-76
2021/04/02 07:10:37;;;;;;;13.75;7.12;;;;;;;3.83;75.89;100552.56;1713984;81;26438;-75
2021/04/02 07:13:07;;;;;;;11.63;7.97;;;;;;;3.95;76.24;100555.96;1712058;81;25762;-76
2021/04/02 07:15:36;;;;;;;11.03;7.55;;;;;;;4.04;75.89;100543.64;1708377;81;25757;-75
2021/04/02 07:18:12;;;;;;;10.58;7.95;;;;;;;4.13;75.70;100534.34;1711289;81;26464;-75
2021/04/02 07:20:38;;;;;;;8.80;7.67;;;;;;;4.06;75.31;100528.80;1710876;81;25701;-76
2021/04/02 07:23:05;;;;;;;10.37;7.53;;;;;;;4.08;75.28;100528.22;1725752;80;25832;-75
2021/04/02 07:25:32;;;;;;;11.78;7.78;;;;;;;4.14;75.32;100534.67;1727416;80;25854;-75
2021/04/02 07:27:59;;;;;;;10.58;7.53;;;;;;;4.18;75.30;100535.63;1724031;79;25405;-75
2021/04/02 07:30:27;;;;;;;9.13;6.72;;;;;;;4.26;75.00;100537.62;1724329;80;25794;-75
2021/04/02 07:32:57;;;;;;;13.53;6.78;;;;;;;4.33;74.77;100536.66;1724925;80;25889;-75
2021/04/02 07:35:24;;;;;;;9.20;6.50;;;;;;;4.36;74.60;100537.23;1704758;81;25419;-75
2021/04/02 07:37:55;;;;;;;12.25;6.80;;;;;;;4.43;74.35;100537.11;1724439;80;25365;-75
2021/04/02 07:40:26;;;;;;;11.97;7.95;;;;;;;4.51;74.44;100546.86;1688728;82;25791;-74
2021/04/02 07:42:56;;;;;;;13.00;7.50;;;;;;;4.64;74.73;100541.06;1695435;82;26449;-74
2021/04/02 07:45:27;;;;;;;9.43;8.05;;;;;;;4.80;74.34;100539.82;1690578;82;26125;-75
2021/04/02 07:47:56;;;;;;;8.30;6.20;;;;;;;4.83;73.93;100539.13;1696700;82;25836;-75
2021/04/02 07:50:38;;;;;;;11.28;7.37;;;;;;;4.94;73.91;100546.48;1696936;82;25880;-74
2021/04/02 07:53:04;;;;;;;10.18;7.28;;;;;;;4.99;73.79;100542.59;1696495;82;25821;-75
2021/04/02 07:55:30;;;;;;;10.03;7.10;;;;;;;5.14;73.33;100544.88;1696110;82;26175;-74
2021/04/02 07:58:02;;;;;;;10.53;6.77;;;;;;;5.17;73.40;100544.14;1697919;82;25816;-75
2021/04/02 08:00:36;;;;;;;11.08;7.30;;;;;;;5.24;72.78;100542.70;1695062;82;25832;-75
2021/04/02 08:03:15;;;;;;;8.23;6.67;;;;;;;5.26;72.50;100534.79;1696063;82;25656;-76
2021/04/02 08:08:48;;;;;;;10.20;7.75;;;;;;;5.36;72.66;100536.98;1689940;83;26486;-75
2021/04/02 08:11:32;;;;;;;7.60;5.83;;;;;;;5.50;72.85;100534.53;1683380;83;26137;-76
2021/04/02 08:14:06;;;;;;;8.40;6.37;;;;;;;5.67;72.39;100535.23;1681738;83;25813;-75
2021/04/02 08:16:47;;;;;;;8.50;5.75;;;;;;;5.82;71.96;100533.61;1662689;84;25910;-76
2021/04/02 08:19:18;;;;;;;7.53;5.60;;;;;;;5.92;71.30;100537.05;1660735;84;26410;-76
2021/04/02 08:21:56;;;;;;;10.45;6.42;;;;;;;5.99;70.87;100525.23;1661551;84;26274;-75
2021/04/02 08:24:26;;;;;;;9.23;5.80;;;;;;;6.03;71.35;100521.89;1633655;84;25856;-75
2021/04/02 08:26:54;;;;;;;10.53;6.03;;;;;;;6.14;70.77;100529.13;1686874;83;25801;-75
2021/04/02 08:29:23;;;;;;;9.20;5.55;;;;;;;6.11;69.51;100518.16;1622744;84;25854;-75
2021/04/02 08:37:16;;;;;;;13.13;5.37;;;;;;;6.33;69.37;100516.67;1617032;86;25979;-76
2021/04/02 08:39:42;;;;;;;8.05;5.22;;;;;;;6.42;69.44;100509.85;1619597;86;25887;-76
2021/04/02 08:42:11;;;;;;;7.33;4.13;;;;;;;6.60;69.13;100512.59;1621009;86;26185;-76
2021/04/02 08:44:41;;;;;;;6.58;3.90;;;;;;;6.68;67.17;100512.73;1619398;87;25782;-76
2021/04/02 08:47:09;;;;;;;7.15;4.00;;;;;;;6.63;66.95;100507.16;1620613;86;25794;-76
2021/04/02 08:49:43;;;;;;;8.33;5.87;;;;;;;6.61;67.27;100505.97;1620057;86;25767;-76
2021/04/02 08:52:16;;;;;;;7.47;5.03;;;;;;;6.68;66.16;100507.53;1619196;86;25761;-76
2021/04/02 08:54:43;;;;;;;7.72;4.78;;;;;;;6.70;65.92;100502.22;1618867;86;25834;-75
2021/04/02 08:57:12;;;;;;;8.58;4.17;;;;;;;6.76;66.37;100505.56;1618809;85;25310;-75
2021/04/02 08:59:42;;;;;;;9.60;5.67;;;;;;;6.85;65.86;100500.38;1620059;86;25760;-76
2021/04/02 09:02:09;;;;;;;6.17;4.10;;;;;;;7.00;65.24;100490.38;1621122;86;25817;-75
2021/04/02 09:04:36;;;;;;;6.85;4.30;;;;;;;7.08;64.63;100490.98;1600084;87;25689;-75
2021/04/02 09:07:02;;;;;;;4.97;3.67;;;;;;;7.08;64.95;100487.91;1619752;86;26010;-75
2021/04/02 09:09:31;;;;;;;4.05;3.33;;;;;;;7.10;63.62;100485.17;1600662;86;25970;-76
2021/04/02 09:12:08;;;;;;;4.92;3.65;;;;;;;7.11;63.72;100488.10;1618413;85;26574;-75
2021/04/02 09:14:33;;;;;;;5.28;3.75;;;;;;;7.25;64.79;100497.24;1618766;86;26023;-75
2021/04/02 09:17:00;;;;;;;7.73;4.13;;;;;;;7.36;64.56;100497.08;1619340;86;25908;-76
2021/04/02 09:19:27;;;;;;;5.53;3.45;;;;;;;7.39;63.31;100498.09;1618386;85;25840;-76
2021/04/02 09:21:55;;;;;;;6.87;3.20;;;;;;;7.39;61.62;100493.38;1618870;86;25736;-76
2021/04/02 09:24:22;;;;;;;5.47;2.80;;;;;;;7.34;60.37;100501.14;1619597;85;26404;-76
2021/04/02 09:26:49;;;;;;;6.97;2.90;;;;;;;7.28;61.15;100494.36;1620154;87;25784;-76
2021/04/02 09:29:17;;;;;;;5.60;3.22;;;;;;;7.34;61.18;100481.64;1619412;86;26243;-75
2021/04/02 09:31:44;;;;;;;4.28;2.67;;;;;;;7.51;60.78;100490.96;1622451;85;25672;-76
2021/04/02 09:34:18;;;;;;;4.22;2.65;;;;;;;7.60;60.47;100487.50;1636296;85;25323;-76
2021/04/02 09:36:42;;;;;;;5.05;2.47;;;;;;;7.62;59.05;100489.48;1641702;85;25788;-77
2021/04/02 09:39:16;;;;;;;3.72;2.47;;;;;;;7.65;59.01;100475.38;1642051;85;25719;-77
2021/04/02 09:41:53;;;;;;;4.65;2.72;;;;;;;7.73;57.89;100486.70;1641916;85;25830;-77
2021/04/02 09:44:30;;;;;;;4.08;2.87;;;;;;;7.82;58.69;100477.69;1648847;85;25569;-77
2021/04/02 09:47:13;;;;;;;3.83;2.60;;;;;;;7.95;58.44;100474.27;1620493;86;25893;-77
2021/04/02 09:49:41;;;;;;;4.47;2.20;;;;;;;8.02;58.42;100471.44;1651365;84;25837;-76
2021/04/02 09:52:09;;;;;;;5.10;2.65;;;;;;;8.02;58.05;100464.94;1614682;85;25817;-76
2021/04/02 09:54:37;;;;;;;5.40;2.33;;;;;;;8.08;57.43;100456.53;1651182;85;25439;-76
2021/04/02 09:57:08;;;;;;;4.05;2.60;;;;;;;8.19;58.68;100461.53;1628135;85;25796;-76
2021/04/02 09:59:36;;;;;;;4.03;2.60;;;;;;;8.31;58.13;100452.20;1636393;85;25804;-76
2021/04/02 10:02:03;;;;;;;3.27;2.20;;;;;;;8.36;56.52;100461.69;1621707;86;25909;-76
2021/04/02 10:04:29;;;;;;;5.87;2.70;;;;;;;8.32;56.90;100448.62;1650240;85;25718;-76
2021/04/02 10:06:55;;;;;;;3.53;2.77;;;;;;;8.40;56.35;100452.63;1650020;85;25464;-76
2021/04/02 10:09:21;;;;;;;6.95;2.40;;;;;;;8.46;57.76;100441.64;1609924;85;25890;-76
2021/04/02 10:11:49;;;;;;;3.57;2.53;;;;;;;8.57;55.48;100441.91;1628007;86;28466;-76
2021/04/02 10:14:18;;;;;;;3.98;2.02;;;;;;;8.54;54.67;100436.96;1628857;85;25773;-77
2021/04/02 10:16:46;;;;;;;4.50;1.98;;;;;;;8.54;52.81;100444.78;1629534;85;25580;-76
2021/04/02 10:19:13;;;;;;;2.80;2.05;;;;;;;8.49;52.99;100433.52;1627697;86;26820;-76
2021/04/02 10:21:39;;;;;;;3.02;1.70;;;;;;;8.55;53.34;100432.11;1627097;86;25385;-76
2021/04/02 10:24:07;;;;;;;3.43;2.10;;;;;;;8.65;53.12;100432.36;1606962;86;27875;-76
2021/04/02 10:26:33;;;;;;;4.62;2.58;;;;;;;8.71;50.62;100436.15;1627577;86;25941;-75
2021/04/02 10:28:59;;;;;;;3.15;2.00;;;;;;;8.73;52.73;100431.61;1639943;85;25656;-75
2021/04/02 10:31:25;;;;;;;2.20;1.80;;;;;;;8.84;52.33;100427.95;1640078;85;26033;-75
2021/04/02 10:33:52;;;;;;;4.63;2.27;;;;;;;8.95;52.84;100423.78;1648718;84;31152;-76
2021/04/02 10:36:18;;;;;;;3.00;2.05;;;;;;;9.00;53.17;100423.30;1655899;83;25769;-76
2021/04/02 10:38:46;;;;;;;3.50;1.77;;;;;;;9.00;52.01;100421.55;1656497;84;25785;-75
2021/04/02 10:41:12;;;;;;;2.50;1.80;;;;;;;9.03;51.95;100415.17;1655236;83;26737;-75
2021/04/02 10:43:38;;;;;;;4.60;1.77;;;;;;;9.10;52.80;100417.02;1656447;83;25735;-76
2021/04/02 10:46:05;;;;;;;2.83;1.77;;;;;;;9.14;51.26;100411.49;1656814;84;31217;-76
2021/04/02 10:48:31;;;;;;;2.05;1.55;;;;;;;9.15;51.89;100405.33;1656590;83;25797;-76
2021/04/02 10:50:57;;;;;;;4.40;1.92;;;;;;;9.19;51.17;100408.75;1655921;84;25868;-76
2021/04/02 10:53:26;;;;;;;5.97;2.23;;;;;;;9.25;50.64;100404.24;1656018;84;25860;-75
2021/04/02 10:55:52;;;;;;;5.35;2.10;;;;;;;9.26;50.36;100403.75;1656581;84;25785;-75
2021/04/02 10:58:18;;;;;;;4.97;2.20;;;;;;;9.31;49.24;100410.63;1657118;84;25823;-76
2021/04/02 11:00:44;;;;;;;3.07;1.70;;;;;;;9.31;48.87;100404.92;1656963;83;30764;-76
2021/04/02 11:03:11;;;;;;;3.30;1.80;;;;;;;9.24;47.95;100403.89;1654156;84;26540;-76
2021/04/02 11:05:38;;;;;;;2.72;1.82;;;;;;;9.21;48.79;100406.00;1633747;85;26802;-75
2021/04/02 11:08:05;;;;;;;2.77;2.10;;;;;;;9.24;49.18;100396.56;1655553;83;25365;-76
2021/04/02 11:10:31;;;;;;;3.47;2.30;;;;;;;9.38;49.86;100398.58;1654829;84;25882;-75
2021/04/02 11:12:57;;;;;;;4.20;2.77;;;;;;;9.50;49.65;100405.66;1654860;83;30781;-75
2021/04/02 11:15:23;;;;;;;6.12;3.30;;;;;;;9.59;50.06;100400.80;1652941;83;25749;-76
2021/04/02 11:17:51;;;;;;;5.10;3.17;;;;;;;9.54;49.62;100392.62;1654673;84;26025;-75
2021/04/02 11:20:21;;;;;;;4.17;2.40;;;;;;;9.52;50.62;100387.57;1655038;84;26656;-75
2021/04/02 11:22:47;;;;;;;2.62;2.10;;;;;;;9.62;49.59;100385.31;1655810;84;25836;-76
2021/04/02 11:25:15;;;;;;;4.47;2.85;;;;;;;9.70;49.28;100382.23;1656324;84;26346;-76
2021/04/02 11:27:42;;;;;;;4.33;2.58;;;;;;;9.85;49.90;100383.76;1655512;84;25840;-75
2021/04/02 11:30:12;;;;;;;3.37;2.10;;;;;;;9.99;48.32;100386.23;1655589;84;26108;-75
2021/04/02 11:32:38;;;;;;;4.17;2.37;;;;;;;9.90;47.08;100380.64;1657741;84;25905;-76
2021/04/02 11:35:08;;;;;;;2.47;2.10;;;;;;;9.89;47.89;100381.14;1654613;83;25928;-76
2021/04/02 11:37:34;;;;;;;4.15;2.17;;;;;;;9.95;46.95;100368.75;1655074;84;26820;-76
2021/04/02 11:40:00;;;;;;;3.22;2.20;;;;;;;9.98;46.66;100369.76;1654291;84;26942;-76
2021/04/02 11:42:26;;;;;;;3.73;2.00;;;;;;;9.98;46.93;100371.06;1654642;84;26569;-76
2021/04/02 11:44:52;;;;;;;3.43;1.83;;;;;;;9.95;47.20;100367.44;1654480;84;26598;-76
2021/04/02 11:47:17;;;;;;;2.93;2.03;;;;;;;10.00;45.49;100370.88;1653543;83;33243;-75
2021/04/02 11:49:43;;;;;;;5.67;2.10;;;;;;;10.00;44.22;100372.19;1655884;84;31863;-76
2021/04/02 11:52:09;;;;;;;5.20;2.00;;;;;;;9.95;44.08;100373.97;1654987;84;25911;-76